sensor_id;sensor_type;location;lat;lon;timestamp;P1;durP1;ratioP1;P2;durP2;ratioP2
19038;SDS011;9652;49.014;12.052;2023-12-07T00:02:17;8.87;;;6.93;;
19038;SDS011;9652;49.014;12.052;2023-12-07T00:04:46;9.47;;;7.60;;
19038;SDS011;9652;49.014;12.052;2023-12-07T00:07:13;8.87;;;7.10;;
19038;SDS011;9652;49.014;12.052;2023-12-07T00:09:40;10.90;;;6.90;;
19038;SDS011;9652;49.014;12.052;2023-12-07T00:12:07;9.63;;;7.57;;
19038;SDS011;9652;49.014;12.052;2023-12-07T00:14:34;10.40;;;7.30;;
19038;SDS011;9652;49.014;12.052;2023-12-07T00:17:01;9.07;;;7.23;;
19038;SDS011;9652;49.014;12.052;2023-12-07T00:19:29;11.40;;;7.20;;
19038;SDS011;9652;49.014;12.052;2023-12-07T00:21:56;9.33;;;7.17;;
19038;SDS011;9652;49.014;12.052;2023-12-07T00:24:23;9.27;;;7.60;;
19038;SDS011;9652;49.014;12.052;2023-12-07T00:26:50;8.93;;;7.30;;
19038;SDS011;9652;49.014;12.052;2023-12-07T00:29:17;10.77;;;7.80;;
19038;SDS011;9652;49.014;12.052;2023-12-07T00:31:44;7.77;;;6.77;;
19038;SDS011;9652;49.014;12.052;2023-12-07T00:34:11;9.63;;;7.77;;
19038;SDS011;9652;49.014;12.052;2023-12-07T00:36:39;9.17;;;6.83;;
19038;SDS011;9652;49.014;12.052;2023-12-07T00:39:08;8.60;;;6.83;;
19038;SDS011;9652;49.014;12.052;2023-12-07T00:41:35;9.17;;;7.53;;
19038;SDS011;9652;49.014;12.052;2023-12-07T00:44:02;10.10;;;7.43;;
19038;SDS011;9652;49.014;12.052;2023-12-07T00:46:30;8.77;;;7.30;;
19038;SDS011;9652;49.014;12.052;2023-12-07T00:48:57;9.23;;;6.93;;
19038;SDS011;9652;49.014;12.052;2023-12-07T00:51:24;9.20;;;6.70;;
19038;SDS011;9652;49.014;12.052;2023-12-07T00:53:52;12.60;;;7.90;;
19038;SDS011;9652;49.014;12.052;2023-12-07T00:56:20;9.17;;;7.07;;
19038;SDS011;9652;49.014;12.052;2023-12-07T00:58:47;9.60;;;7.10;;
19038;SDS011;9652;49.014;12.052;2023-12-07T01:01:14;8.97;;;6.87;;
19038;SDS011;9652;49.014;12.052;2023-12-07T01:03:41;9.03;;;6.97;;
19038;SDS011;9652;49.014;12.052;2023-12-07T01:06:08;10.53;;;8.10;;
19038;SDS011;9652;49.014;12.052;2023-12-07T01:08:36;9.37;;;7.07;;
19038;SDS011;9652;49.014;12.052;2023-12-07T01:11:03;10.00;;;7.13;;
19038;SDS011;9652;49.014;12.052;2023-12-07T01:13:32;8.93;;;6.80;;
19038;SDS011;9652;49.014;12.052;2023-12-07T01:16:01;9.00;;;7.30;;
19038;SDS011;9652;49.014;12.052;2023-12-07T01:18:28;10.00;;;7.33;;
19038;SDS011;9652;49.014;12.052;2023-12-07T01:20:55;9.67;;;7.33;;
19038;SDS011;9652;49.014;12.052;2023-12-07T01:23:22;9.40;;;6.97;;
19038;SDS011;9652;49.014;12.052;2023-12-07T01:25:49;7.80;;;6.47;;
19038;SDS011;9652;49.014;12.052;2023-12-07T01:28:16;9.60;;;7.53;;
19038;SDS011;9652;49.014;12.052;2023-12-07T01:30:44;10.60;;;8.03;;
19038;SDS011;9652;49.014;12.052;2023-12-07T01:33:12;9.33;;;7.40;;
19038;SDS011;9652;49.014;12.052;2023-12-07T01:35:38;8.97;;;7.30;;
19038;SDS011;9652;49.014;12.052;2023-12-07T01:38:05;9.67;;;7.20;;
19038;SDS011;9652;49.014;12.052;2023-12-07T01:40:32;10.80;;;7.53;;
19038;SDS011;9652;49.014;12.052;2023-12-07T01:43:00;10.70;;;7.60;;
19038;SDS011;9652;49.014;12.052;2023-12-07T01:45:27;11.50;;;8.20;;
19038;SDS011;9652;49.014;12.052;2023-12-07T01:47:55;10.87;;;8.23;;
19038;SDS011;9652;49.014;12.052;2023-12-07T01:50:23;10.03;;;8.17;;
19038;SDS011;9652;49.014;12.052;2023-12-07T01:52:52;8.93;;;7.10;;
19038;SDS011;9652;49.014;12.052;2023-12-07T01:55:26;10.33;;;7.67;;
19038;SDS011;9652;49.014;12.052;2023-12-07T01:57:54;9.50;;;7.30;;
19038;SDS011;9652;49.014;12.052;2023-12-07T02:00:22;10.43;;;6.77;;
19038;SDS011;9652;49.014;12.052;2023-12-07T02:02:49;11.40;;;7.23;;
19038;SDS011;9652;49.014;12.052;2023-12-07T02:05:19;11.23;;;7.87;;
19038;SDS011;9652;49.014;12.052;2023-12-07T02:07:46;9.07;;;7.73;;
19038;SDS011;9652;49.014;12.052;2023-12-07T02:10:13;10.77;;;8.10;;
19038;SDS011;9652;49.014;12.052;2023-12-07T02:12:41;10.40;;;7.43;;
19038;SDS011;9652;49.014;12.052;2023-12-07T02:15:09;9.57;;;7.77;;
19038;SDS011;9652;49.014;12.052;2023-12-07T02:17:38;10.03;;;7.67;;
19038;SDS011;9652;49.014;12.052;2023-12-07T02:20:20;10.17;;;7.63;;
19038;SDS011;9652;49.014;12.052;2023-12-07T02:22:55;9.30;;;7.50;;
19038;SDS011;9652;49.014;12.052;2023-12-07T02:25:29;9.20;;;7.37;;
19038;SDS011;9652;49.014;12.052;2023-12-07T02:28:04;9.93;;;7.57;;
19038;SDS011;9652;49.014;12.052;2023-12-07T02:30:31;11.53;;;8.40;;
19038;SDS011;9652;49.014;12.052;2023-12-07T02:32:58;13.50;;;8.73;;
19038;SDS011;9652;49.014;12.052;2023-12-07T02:35:25;10.13;;;7.47;;
19038;SDS011;9652;49.014;12.052;2023-12-07T02:37:54;11.30;;;8.43;;
19038;SDS011;9652;49.014;12.052;2023-12-07T02:40:23;9.50;;;7.33;;
19038;SDS011;9652;49.014;12.052;2023-12-07T02:42:54;10.80;;;8.23;;
19038;SDS011;9652;49.014;12.052;2023-12-07T02:45:23;12.00;;;8.03;;
19038;SDS011;9652;49.014;12.052;2023-12-07T02:47:51;11.80;;;8.17;;
19038;SDS011;9652;49.014;12.052;2023-12-07T02:50:18;9.50;;;7.57;;
19038;SDS011;9652;49.014;12.052;2023-12-07T02:52:45;11.57;;;8.23;;
19038;SDS011;9652;49.014;12.052;2023-12-07T02:55:13;9.70;;;7.80;;
19038;SDS011;9652;49.014;12.052;2023-12-07T02:57:40;9.70;;;7.43;;
19038;SDS011;9652;49.014;12.052;2023-12-07T03:00:07;11.23;;;8.47;;
19038;SDS011;9652;49.014;12.052;2023-12-07T03:02:39;11.60;;;7.77;;
19038;SDS011;9652;49.014;12.052;2023-12-07T03:05:07;9.77;;;7.73;;
19038;SDS011;9652;49.014;12.052;2023-12-07T03:07:34;9.20;;;7.70;;
19038;SDS011;9652;49.014;12.052;2023-12-07T03:10:01;8.77;;;6.97;;
19038;SDS011;9652;49.014;12.052;2023-12-07T03:12:29;10.47;;;7.37;;
19038;SDS011;9652;49.014;12.052;2023-12-07T03:14:56;9.83;;;7.77;;
19038;SDS011;9652;49.014;12.052;2023-12-07T03:17:24;10.07;;;7.63;;
19038;SDS011;9652;49.014;12.052;2023-12-07T03:19:52;12.17;;;8.10;;
19038;SDS011;9652;49.014;12.052;2023-12-07T03:22:19;11.07;;;8.50;;
19038;SDS011;9652;49.014;12.052;2023-12-07T03:24:49;10.60;;;7.63;;
19038;SDS011;9652;49.014;12.052;2023-12-07T03:27:17;9.57;;;7.33;;
19038;SDS011;9652;49.014;12.052;2023-12-07T03:29:44;9.83;;;7.67;;
19038;SDS011;9652;49.014;12.052;2023-12-07T03:32:12;10.33;;;7.60;;
19038;SDS011;9652;49.014;12.052;2023-12-07T03:34:39;11.93;;;8.40;;
19038;SDS011;9652;49.014;12.052;2023-12-07T03:37:07;9.43;;;7.33;;
19038;SDS011;9652;49.014;12.052;2023-12-07T03:39:34;11.17;;;8.33;;
19038;SDS011;9652;49.014;12.052;2023-12-07T03:42:01;11.73;;;8.20;;
19038;SDS011;9652;49.014;12.052;2023-12-07T03:44:29;10.73;;;8.20;;
19038;SDS011;9652;49.014;12.052;2023-12-07T03:46:56;10.20;;;7.73;;
19038;SDS011;9652;49.014;12.052;2023-12-07T03:49:23;12.17;;;7.70;;
19038;SDS011;9652;49.014;12.052;2023-12-07T03:51:50;11.80;;;8.00;;
19038;SDS011;9652;49.014;12.052;2023-12-07T03:54:18;10.73;;;8.27;;
19038;SDS011;9652;49.014;12.052;2023-12-07T03:56:45;12.03;;;8.30;;
19038;SDS011;9652;49.014;12.052;2023-12-07T03:59:12;9.70;;;7.47;;
19038;SDS011;9652;49.014;12.052;2023-12-07T04:01:40;9.53;;;7.43;;
19038;SDS011;9652;49.014;12.052;2023-12-07T04:04:07;13.70;;;8.43;;
19038;SDS011;9652;49.014;12.052;2023-12-07T04:06:34;10.70;;;7.90;;
19038;SDS011;9652;49.014;12.052;2023-12-07T04:09:01;10.87;;;8.40;;
19038;SDS011;9652;49.014;12.052;2023-12-07T04:11:30;12.13;;;7.47;;
19038;SDS011;9652;49.014;12.052;2023-12-07T04:13:57;9.20;;;7.20;;
19038;SDS011;9652;49.014;12.052;2023-12-07T04:16:24;11.70;;;8.57;;
19038;SDS011;9652;49.014;12.052;2023-12-07T04:18:52;10.43;;;7.50;;
19038;SDS011;9652;49.014;12.052;2023-12-07T04:21:19;12.77;;;8.43;;
19038;SDS011;9652;49.014;12.052;2023-12-07T04:23:46;10.60;;;7.93;;
19038;SDS011;9652;49.014;12.052;2023-12-07T04:26:13;12.27;;;8.50;;
19038;SDS011;9652;49.014;12.052;2023-12-07T04:28:42;11.90;;;8.10;;
19038;SDS011;9652;49.014;12.052;2023-12-07T04:31:09;10.23;;;7.53;;
19038;SDS011;9652;49.014;12.052;2023-12-07T04:33:36;9.07;;;7.43;;
19038;SDS011;9652;49.014;12.052;2023-12-07T04:36:03;10.53;;;7.63;;
19038;SDS011;9652;49.014;12.052;2023-12-07T04:38:32;9.77;;;7.83;;
19038;SDS011;9652;49.014;12.052;2023-12-07T04:40:59;10.03;;;7.80;;
19038;SDS011;9652;49.014;12.052;2023-12-07T04:43:27;10.47;;;7.90;;
19038;SDS011;9652;49.014;12.052;2023-12-07T04:45:55;13.20;;;8.27;;
19038;SDS011;9652;49.014;12.052;2023-12-07T04:48:22;10.80;;;7.53;;
19038;SDS011;9652;49.014;12.052;2023-12-07T04:50:50;11.10;;;7.70;;
19038;SDS011;9652;49.014;12.052;2023-12-07T04:53:17;10.30;;;7.80;;
19038;SDS011;9652;49.014;12.052;2023-12-07T04:55:44;9.77;;;7.50;;
19038;SDS011;9652;49.014;12.052;2023-12-07T04:58:15;10.63;;;7.43;;
19038;SDS011;9652;49.014;12.052;2023-12-07T05:00:42;10.60;;;8.90;;
19038;SDS011;9652;49.014;12.052;2023-12-07T05:03:10;10.83;;;8.47;;
19038;SDS011;9652;49.014;12.052;2023-12-07T05:05:38;12.73;;;8.73;;
19038;SDS011;9652;49.014;12.052;2023-12-07T05:08:05;12.10;;;8.77;;
19038;SDS011;9652;49.014;12.052;2023-12-07T05:10:32;11.97;;;7.57;;
19038;SDS011;9652;49.014;12.052;2023-12-07T05:12:59;12.27;;;8.70;;
19038;SDS011;9652;49.014;12.052;2023-12-07T05:15:26;16.17;;;7.17;;
19038;SDS011;9652;49.014;12.052;2023-12-07T05:17:53;10.50;;;7.20;;
19038;SDS011;9652;49.014;12.052;2023-12-07T05:20:22;9.77;;;7.57;;
19038;SDS011;9652;49.014;12.052;2023-12-07T05:22:50;12.13;;;7.90;;
19038;SDS011;9652;49.014;12.052;2023-12-07T05:25:18;11.00;;;8.33;;
19038;SDS011;9652;49.014;12.052;2023-12-07T05:27:45;10.97;;;8.10;;
19038;SDS011;9652;49.014;12.052;2023-12-07T05:30:12;12.57;;;8.43;;
19038;SDS011;9652;49.014;12.052;2023-12-07T05:32:40;10.47;;;7.27;;
19038;SDS011;9652;49.014;12.052;2023-12-07T05:35:08;10.90;;;7.97;;
19038;SDS011;9652;49.014;12.052;2023-12-07T05:37:36;9.00;;;6.90;;
19038;SDS011;9652;49.014;12.052;2023-12-07T05:40:04;13.87;;;9.00;;
19038;SDS011;9652;49.014;12.052;2023-12-07T05:42:32;11.17;;;8.57;;
19038;SDS011;9652;49.014;12.052;2023-12-07T05:45:00;10.60;;;8.33;;
19038;SDS011;9652;49.014;12.052;2023-12-07T05:47:27;12.33;;;9.33;;
19038;SDS011;9652;49.014;12.052;2023-12-07T05:49:54;14.50;;;9.00;;
19038;SDS011;9652;49.014;12.052;2023-12-07T05:52:22;12.33;;;8.20;;
19038;SDS011;9652;49.014;12.052;2023-12-07T05:54:51;11.27;;;7.87;;
19038;SDS011;9652;49.014;12.052;2023-12-07T05:57:18;11.07;;;8.23;;
19038;SDS011;9652;49.014;12.052;2023-12-07T05:59:45;13.63;;;8.67;;
19038;SDS011;9652;49.014;12.052;2023-12-07T06:02:12;11.73;;;8.13;;
19038;SDS011;9652;49.014;12.052;2023-12-07T06:04:39;13.43;;;7.97;;
19038;SDS011;9652;49.014;12.052;2023-12-07T06:07:07;11.43;;;7.90;;
19038;SDS011;9652;49.014;12.052;2023-12-07T06:09:34;9.37;;;7.23;;
19038;SDS011;9652;49.014;12.052;2023-12-07T06:12:03;13.17;;;8.77;;
19038;SDS011;9652;49.014;12.052;2023-12-07T06:14:30;12.97;;;8.00;;
19038;SDS011;9652;49.014;12.052;2023-12-07T06:16:58;16.00;;;9.43;;
19038;SDS011;9652;49.014;12.052;2023-12-07T06:19:25;14.73;;;9.13;;
19038;SDS011;9652;49.014;12.052;2023-12-07T06:21:52;11.20;;;8.37;;
19038;SDS011;9652;49.014;12.052;2023-12-07T06:24:19;11.77;;;8.27;;
19038;SDS011;9652;49.014;12.052;2023-12-07T06:26:48;14.20;;;8.70;;
19038;SDS011;9652;49.014;12.052;2023-12-07T06:29:16;11.97;;;8.30;;
19038;SDS011;9652;49.014;12.052;2023-12-07T06:31:44;10.57;;;6.90;;
19038;SDS011;9652;49.014;12.052;2023-12-07T06:34:11;13.13;;;8.10;;
19038;SDS011;9652;49.014;12.052;2023-12-07T06:36:38;11.60;;;8.47;;
19038;SDS011;9652;49.014;12.052;2023-12-07T06:39:05;11.10;;;8.97;;
19038;SDS011;9652;49.014;12.052;2023-12-07T06:41:32;10.30;;;7.83;;
19038;SDS011;9652;49.014;12.052;2023-12-07T06:43:59;10.83;;;7.87;;
19038;SDS011;9652;49.014;12.052;2023-12-07T06:46:28;11.53;;;7.70;;
19038;SDS011;9652;49.014;12.052;2023-12-07T06:48:55;11.53;;;7.87;;
19038;SDS011;9652;49.014;12.052;2023-12-07T06:51:22;11.53;;;7.73;;
19038;SDS011;9652;49.014;12.052;2023-12-07T06:53:49;10.80;;;7.80;;
19038;SDS011;9652;49.014;12.052;2023-12-07T06:56:16;11.30;;;8.33;;
19038;SDS011;9652;49.014;12.052;2023-12-07T06:58:44;11.53;;;8.43;;
19038;SDS011;9652;49.014;12.052;2023-12-07T07:01:11;10.97;;;8.07;;
19038;SDS011;9652;49.014;12.052;2023-12-07T07:03:40;13.77;;;9.23;;
19038;SDS011;9652;49.014;12.052;2023-12-07T07:06:08;10.63;;;8.37;;
19038;SDS011;9652;49.014;12.052;2023-12-07T07:08:35;11.00;;;8.73;;
19038;SDS011;9652;49.014;12.052;2023-12-07T07:11:08;11.77;;;8.40;;
19038;SDS011;9652;49.014;12.052;2023-12-07T07:13:38;10.40;;;7.87;;
19038;SDS011;9652;49.014;12.052;2023-12-07T07:16:05;11.43;;;8.63;;
19038;SDS011;9652;49.014;12.052;2023-12-07T07:18:33;14.07;;;8.83;;
19038;SDS011;9652;49.014;12.052;2023-12-07T07:21:02;12.90;;;8.57;;
19038;SDS011;9652;49.014;12.052;2023-12-07T07:23:29;13.70;;;9.10;;
19038;SDS011;9652;49.014;12.052;2023-12-07T07:25:56;11.07;;;8.17;;
19038;SDS011;9652;49.014;12.052;2023-12-07T07:28:23;13.03;;;8.87;;
19038;SDS011;9652;49.014;12.052;2023-12-07T07:30:50;12.77;;;8.07;;
19038;SDS011;9652;49.014;12.052;2023-12-07T07:33:18;13.40;;;8.73;;
19038;SDS011;9652;49.014;12.052;2023-12-07T07:35:45;13.07;;;9.30;;
19038;SDS011;9652;49.014;12.052;2023-12-07T07:38:14;14.23;;;9.90;;
19038;SDS011;9652;49.014;12.052;2023-12-07T07:40:41;13.20;;;8.30;;
19038;SDS011;9652;49.014;12.052;2023-12-07T07:43:10;11.93;;;8.67;;
19038;SDS011;9652;49.014;12.052;2023-12-07T07:45:37;13.60;;;9.43;;
19038;SDS011;9652;49.014;12.052;2023-12-07T07:48:04;10.77;;;7.63;;
19038;SDS011;9652;49.014;12.052;2023-12-07T07:50:31;13.80;;;9.00;;
19038;SDS011;9652;49.014;12.052;2023-12-07T07:53:01;15.00;;;9.60;;
19038;SDS011;9652;49.014;12.052;2023-12-07T07:55:30;12.93;;;9.17;;
19038;SDS011;9652;49.014;12.052;2023-12-07T07:57:57;13.13;;;8.93;;
19038;SDS011;9652;49.014;12.052;2023-12-07T08:00:24;12.53;;;8.30;;
19038;SDS011;9652;49.014;12.052;2023-12-07T08:02:53;14.00;;;9.20;;
19038;SDS011;9652;49.014;12.052;2023-12-07T08:05:20;11.50;;;8.23;;
19038;SDS011;9652;49.014;12.052;2023-12-07T08:07:47;14.00;;;9.60;;
19038;SDS011;9652;49.014;12.052;2023-12-07T08:10:14;14.33;;;8.50;;
19038;SDS011;9652;49.014;12.052;2023-12-07T08:12:43;14.33;;;10.00;;
19038;SDS011;9652;49.014;12.052;2023-12-07T08:15:10;12.93;;;8.80;;
19038;SDS011;9652;49.014;12.052;2023-12-07T08:17:37;15.03;;;9.90;;
19038;SDS011;9652;49.014;12.052;2023-12-07T08:20:06;13.57;;;10.07;;
19038;SDS011;9652;49.014;12.052;2023-12-07T08:22:35;14.00;;;9.87;;
19038;SDS011;9652;49.014;12.052;2023-12-07T08:25:03;16.67;;;9.90;;
19038;SDS011;9652;49.014;12.052;2023-12-07T08:27:33;13.40;;;9.47;;
19038;SDS011;9652;49.014;12.052;2023-12-07T08:30:02;15.63;;;10.33;;
19038;SDS011;9652;49.014;12.052;2023-12-07T08:32:31;16.20;;;9.53;;
19038;SDS011;9652;49.014;12.052;2023-12-07T08:34:58;12.73;;;8.90;;
19038;SDS011;9652;49.014;12.052;2023-12-07T08:37:25;14.43;;;9.93;;
19038;SDS011;9652;49.014;12.052;2023-12-07T08:39:53;14.17;;;9.63;;
19038;SDS011;9652;49.014;12.052;2023-12-07T08:42:21;13.63;;;9.27;;
19038;SDS011;9652;49.014;12.052;2023-12-07T08:44:48;15.23;;;9.53;;
19038;SDS011;9652;49.014;12.052;2023-12-07T08:47:17;14.67;;;10.03;;
19038;SDS011;9652;49.014;12.052;2023-12-07T08:49:44;13.33;;;9.10;;
19038;SDS011;9652;49.014;12.052;2023-12-07T08:52:11;14.57;;;9.30;;
19038;SDS011;9652;49.014;12.052;2023-12-07T08:54:38;14.40;;;9.70;;
19038;SDS011;9652;49.014;12.052;2023-12-07T08:57:05;14.00;;;10.47;;
19038;SDS011;9652;49.014;12.052;2023-12-07T08:59:32;13.13;;;9.27;;
19038;SDS011;9652;49.014;12.052;2023-12-07T09:01:59;13.20;;;8.80;;
19038;SDS011;9652;49.014;12.052;2023-12-07T09:04:28;14.30;;;9.47;;
19038;SDS011;9652;49.014;12.052;2023-12-07T09:06:55;12.93;;;9.10;;
19038;SDS011;9652;49.014;12.052;2023-12-07T09:09:22;13.20;;;8.60;;
19038;SDS011;9652;49.014;12.052;2023-12-07T09:11:50;13.73;;;9.90;;
19038;SDS011;9652;49.014;12.052;2023-12-07T09:14:18;15.13;;;9.83;;
19038;SDS011;9652;49.014;12.052;2023-12-07T09:16:45;13.20;;;9.30;;
19038;SDS011;9652;49.014;12.052;2023-12-07T09:19:12;15.23;;;8.97;;
19038;SDS011;9652;49.014;12.052;2023-12-07T09:21:41;13.07;;;10.33;;
19038;SDS011;9652;49.014;12.052;2023-12-07T09:24:08;12.07;;;8.67;;
19038;SDS011;9652;49.014;12.052;2023-12-07T09:26:35;13.77;;;9.83;;
19038;SDS011;9652;49.014;12.052;2023-12-07T09:29:02;12.90;;;8.77;;
19038;SDS011;9652;49.014;12.052;2023-12-07T09:31:30;11.93;;;8.63;;
19038;SDS011;9652;49.014;12.052;2023-12-07T09:33:57;13.50;;;9.17;;
19038;SDS011;9652;49.014;12.052;2023-12-07T09:36:24;13.37;;;7.97;;
19038;SDS011;9652;49.014;12.052;2023-12-07T09:38:54;14.50;;;9.03;;
19038;SDS011;9652;49.014;12.052;2023-12-07T09:41:21;10.83;;;7.80;;
19038;SDS011;9652;49.014;12.052;2023-12-07T09:43:50;12.90;;;8.63;;
19038;SDS011;9652;49.014;12.052;2023-12-07T09:46:17;14.70;;;8.90;;
19038;SDS011;9652;49.014;12.052;2023-12-07T09:48:45;13.90;;;9.60;;
19038;SDS011;9652;49.014;12.052;2023-12-07T09:51:15;13.07;;;9.90;;
19038;SDS011;9652;49.014;12.052;2023-12-07T09:53:43;14.37;;;9.73;;
19038;SDS011;9652;49.014;12.052;2023-12-07T09:56:17;15.17;;;10.20;;
19038;SDS011;9652;49.014;12.052;2023-12-07T09:58:44;12.83;;;9.20;;
19038;SDS011;9652;49.014;12.052;2023-12-07T10:01:10;13.10;;;9.07;;
19038;SDS011;9652;49.014;12.052;2023-12-07T10:03:40;14.47;;;9.30;;
19038;SDS011;9652;49.014;12.052;2023-12-07T10:06:08;12.87;;;9.20;;
19038;SDS011;9652;49.014;12.052;2023-12-07T10:08:35;13.87;;;10.17;;
19038;SDS011;9652;49.014;12.052;2023-12-07T10:11:03;15.30;;;10.33;;
19038;SDS011;9652;49.014;12.052;2023-12-07T10:13:33;11.43;;;8.90;;
19038;SDS011;9652;49.014;12.052;2023-12-07T10:16:09;12.47;;;9.03;;
19038;SDS011;9652;49.014;12.052;2023-12-07T10:18:40;12.17;;;9.03;;
19038;SDS011;9652;49.014;12.052;2023-12-07T10:21:08;12.03;;;9.10;;
19038;SDS011;9652;49.014;12.052;2023-12-07T10:23:36;12.23;;;8.90;;
19038;SDS011;9652;49.014;12.052;2023-12-07T10:26:05;12.93;;;8.60;;
19038;SDS011;9652;49.014;12.052;2023-12-07T10:28:35;13.83;;;9.47;;
19038;SDS011;9652;49.014;12.052;2023-12-07T10:31:04;14.47;;;9.23;;
19038;SDS011;9652;49.014;12.052;2023-12-07T10:33:35;10.57;;;8.53;;
19038;SDS011;9652;49.014;12.052;2023-12-07T10:36:02;11.73;;;9.50;;
19038;SDS011;9652;49.014;12.052;2023-12-07T10:38:31;15.80;;;9.63;;
19038;SDS011;9652;49.014;12.052;2023-12-07T10:41:01;13.30;;;8.97;;
19038;SDS011;9652;49.014;12.052;2023-12-07T10:43:37;12.87;;;8.50;;
19038;SDS011;9652;49.014;12.052;2023-12-07T10:46:09;13.00;;;9.30;;
19038;SDS011;9652;49.014;12.052;2023-12-07T10:48:42;11.63;;;9.13;;
19038;SDS011;9652;49.014;12.052;2023-12-07T10:51:14;12.57;;;9.40;;
19038;SDS011;9652;49.014;12.052;2023-12-07T10:53:47;13.73;;;9.40;;
19038;SDS011;9652;49.014;12.052;2023-12-07T10:56:21;12.90;;;9.43;;
19038;SDS011;9652;49.014;12.052;2023-12-07T10:58:57;12.27;;;9.20;;
19038;SDS011;9652;49.014;12.052;2023-12-07T11:01:25;11.80;;;8.50;;
19038;SDS011;9652;49.014;12.052;2023-12-07T11:03:53;11.47;;;9.57;;
19038;SDS011;9652;49.014;12.052;2023-12-07T11:06:22;13.73;;;9.20;;
19038;SDS011;9652;49.014;12.052;2023-12-07T11:08:51;16.17;;;9.40;;
19038;SDS011;9652;49.014;12.052;2023-12-07T11:11:27;13.23;;;9.23;;
19038;SDS011;9652;49.014;12.052;2023-12-07T11:14:09;12.33;;;8.73;;
19038;SDS011;9652;49.014;12.052;2023-12-07T11:16:39;13.20;;;9.60;;
19038;SDS011;9652;49.014;12.052;2023-12-07T11:19:23;9.90;;;8.03;;
19038;SDS011;9652;49.014;12.052;2023-12-07T11:22:11;11.40;;;8.53;;
19038;SDS011;9652;49.014;12.052;2023-12-07T11:24:51;12.10;;;8.77;;
19038;SDS011;9652;49.014;12.052;2023-12-07T11:27:21;12.67;;;8.47;;
19038;SDS011;9652;49.014;12.052;2023-12-07T11:29:50;11.33;;;8.43;;
19038;SDS011;9652;49.014;12.052;2023-12-07T11:32:17;10.70;;;8.53;;
19038;SDS011;9652;49.014;12.052;2023-12-07T11:34:44;12.27;;;8.40;;
19038;SDS011;9652;49.014;12.052;2023-12-07T11:37:14;10.73;;;8.13;;
19038;SDS011;9652;49.014;12.052;2023-12-07T11:39:42;10.20;;;8.20;;
19038;SDS011;9652;49.014;12.052;2023-12-07T11:42:11;11.70;;;9.00;;
19038;SDS011;9652;49.014;12.052;2023-12-07T11:44:42;12.20;;;8.53;;
19038;SDS011;9652;49.014;12.052;2023-12-07T11:47:16;11.10;;;9.20;;
19038;SDS011;9652;49.014;12.052;2023-12-07T11:49:46;10.63;;;8.33;;
19038;SDS011;9652;49.014;12.052;2023-12-07T11:52:14;12.80;;;8.83;;
19038;SDS011;9652;49.014;12.052;2023-12-07T11:54:43;14.37;;;9.37;;
19038;SDS011;9652;49.014;12.052;2023-12-07T11:57:11;14.77;;;9.87;;
19038;SDS011;9652;49.014;12.052;2023-12-07T11:59:39;16.60;;;10.97;;
19038;SDS011;9652;49.014;12.052;2023-12-07T12:02:06;16.80;;;12.07;;
19038;SDS011;9652;49.014;12.052;2023-12-07T12:04:34;18.47;;;12.73;;
19038;SDS011;9652;49.014;12.052;2023-12-07T12:07:01;18.67;;;12.30;;
19038;SDS011;9652;49.014;12.052;2023-12-07T12:09:29;16.83;;;11.67;;
19038;SDS011;9652;49.014;12.052;2023-12-07T12:11:56;17.77;;;11.37;;
19038;SDS011;9652;49.014;12.052;2023-12-07T12:14:25;17.07;;;12.00;;
19038;SDS011;9652;49.014;12.052;2023-12-07T12:16:53;18.10;;;12.43;;
19038;SDS011;9652;49.014;12.052;2023-12-07T12:19:21;19.37;;;12.20;;
19038;SDS011;9652;49.014;12.052;2023-12-07T12:21:50;16.23;;;12.50;;
19038;SDS011;9652;49.014;12.052;2023-12-07T12:24:17;16.73;;;11.73;;
19038;SDS011;9652;49.014;12.052;2023-12-07T12:26:44;16.90;;;11.23;;
19038;SDS011;9652;49.014;12.052;2023-12-07T12:29:13;16.23;;;11.23;;
19038;SDS011;9652;49.014;12.052;2023-12-07T12:31:42;17.17;;;12.17;;
19038;SDS011;9652;49.014;12.052;2023-12-07T12:34:10;15.83;;;11.07;;
19038;SDS011;9652;49.014;12.052;2023-12-07T12:36:38;17.13;;;12.20;;
19038;SDS011;9652;49.014;12.052;2023-12-07T12:39:07;17.83;;;11.80;;
19038;SDS011;9652;49.014;12.052;2023-12-07T12:41:34;17.63;;;12.60;;
19038;SDS011;9652;49.014;12.052;2023-12-07T12:44:01;19.30;;;13.37;;
19038;SDS011;9652;49.014;12.052;2023-12-07T12:46:28;17.53;;;12.90;;
19038;SDS011;9652;49.014;12.052;2023-12-07T12:48:57;18.50;;;12.70;;
19038;SDS011;9652;49.014;12.052;2023-12-07T12:51:26;17.87;;;12.30;;
19038;SDS011;9652;49.014;12.052;2023-12-07T12:53:58;19.87;;;12.83;;
19038;SDS011;9652;49.014;12.052;2023-12-07T12:56:27;17.57;;;12.17;;
19038;SDS011;9652;49.014;12.052;2023-12-07T12:58:55;18.03;;;12.10;;
19038;SDS011;9652;49.014;12.052;2023-12-07T13:01:22;18.90;;;12.60;;
19038;SDS011;9652;49.014;12.052;2023-12-07T13:03:49;20.23;;;13.57;;
19038;SDS011;9652;49.014;12.052;2023-12-07T13:06:17;21.00;;;12.67;;
19038;SDS011;9652;49.014;12.052;2023-12-07T13:08:44;23.07;;;13.90;;
19038;SDS011;9652;49.014;12.052;2023-12-07T13:11:16;18.47;;;13.23;;
19038;SDS011;9652;49.014;12.052;2023-12-07T13:13:46;19.00;;;12.80;;
19038;SDS011;9652;49.014;12.052;2023-12-07T13:16:14;22.90;;;12.70;;
19038;SDS011;9652;49.014;12.052;2023-12-07T13:18:41;19.40;;;12.70;;
19038;SDS011;9652;49.014;12.052;2023-12-07T13:21:08;19.00;;;12.87;;
19038;SDS011;9652;49.014;12.052;2023-12-07T13:23:36;18.67;;;12.73;;
19038;SDS011;9652;49.014;12.052;2023-12-07T13:26:04;21.40;;;13.00;;
19038;SDS011;9652;49.014;12.052;2023-12-07T13:28:31;22.00;;;14.27;;
19038;SDS011;9652;49.014;12.052;2023-12-07T13:31:00;19.60;;;12.73;;
19038;SDS011;9652;49.014;12.052;2023-12-07T13:33:27;20.33;;;13.60;;
19038;SDS011;9652;49.014;12.052;2023-12-07T13:35:55;18.00;;;12.27;;
19038;SDS011;9652;49.014;12.052;2023-12-07T13:38:22;21.73;;;13.27;;
19038;SDS011;9652;49.014;12.052;2023-12-07T13:40:49;18.37;;;12.43;;
19038;SDS011;9652;49.014;12.052;2023-12-07T13:43:17;20.47;;;12.47;;
19038;SDS011;9652;49.014;12.052;2023-12-07T13:45:44;17.30;;;12.30;;
19038;SDS011;9652;49.014;12.052;2023-12-07T13:48:13;17.67;;;11.33;;
19038;SDS011;9652;49.014;12.052;2023-12-07T13:50:40;18.20;;;11.53;;
19038;SDS011;9652;49.014;12.052;2023-12-07T13:53:08;17.23;;;11.87;;
19038;SDS011;9652;49.014;12.052;2023-12-07T13:55:37;17.17;;;11.03;;
19038;SDS011;9652;49.014;12.052;2023-12-07T13:58:04;17.60;;;12.37;;
19038;SDS011;9652;49.014;12.052;2023-12-07T14:00:32;17.73;;;12.57;;
19038;SDS011;9652;49.014;12.052;2023-12-07T14:02:59;18.07;;;12.13;;
19038;SDS011;9652;49.014;12.052;2023-12-07T14:05:27;18.33;;;12.87;;
19038;SDS011;9652;49.014;12.052;2023-12-07T14:07:55;18.23;;;12.57;;
19038;SDS011;9652;49.014;12.052;2023-12-07T14:10:22;20.93;;;12.93;;
19038;SDS011;9652;49.014;12.052;2023-12-07T14:15:24;16.40;;;11.30;;
19038;SDS011;9652;49.014;12.052;2023-12-07T14:17:51;15.90;;;11.10;;
19038;SDS011;9652;49.014;12.052;2023-12-07T14:20:19;18.10;;;11.87;;
19038;SDS011;9652;49.014;12.052;2023-12-07T14:22:50;17.10;;;11.20;;
19038;SDS011;9652;49.014;12.052;2023-12-07T14:25:20;17.83;;;11.37;;
19038;SDS011;9652;49.014;12.052;2023-12-07T14:27:47;18.23;;;11.80;;
19038;SDS011;9652;49.014;12.052;2023-12-07T14:30:14;17.83;;;11.63;;
19038;SDS011;9652;49.014;12.052;2023-12-07T14:32:42;18.97;;;11.33;;
19038;SDS011;9652;49.014;12.052;2023-12-07T14:35:16;19.87;;;10.80;;
19038;SDS011;9652;49.014;12.052;2023-12-07T14:37:43;17.10;;;10.90;;
19038;SDS011;9652;49.014;12.052;2023-12-07T14:40:12;17.40;;;11.73;;
19038;SDS011;9652;49.014;12.052;2023-12-07T14:42:42;19.20;;;11.63;;